バンダルスリブガワン の空港の天気 - METARとTAF

ブルネイ国際空港 ( WBSB / BWN ) - ブルネイ バンダルスリブガワン
飛行場実況気象(Metar)
観測時間12/10 05:30 BNT (12/09 21:30 UTC)
風向・風速南 2m/s
視程10km以上
天気現象
少しの雲 雲底高度 90m
少しの雲 雲底高度 460m
全天の8割程度の雲 雲底高度 4270m
気温26℃
湿度94%
気圧1008hPa
METARWBSB 092130Z 19003KT 9999 FEW003 FEW015CB BKN140 26/25 Q1008 NOSIG
過去の天気等 Google飛行場航空写真 Wunderground天気予報

過去48時間のMETAR

飛行場予報(TAF)
発表時間: 12/10 01:00 BNT (12/09 17:00 UTC)
予報対象時間: 10日2時 BNT ~ 11日8時 BNT
風向・風速南 2m/s
視程10km以上
全天の4割程度の雲 雲底高度 430m
少しの積乱雲 雲底高度 460m
全天の8割程度の雲 雲底高度 4570m
10日11時 BNT ~ 10日13時 BNT に徐々に
風向・風速北 5m/s
少しの雲 雲底高度 490m
少しの積乱雲 雲底高度 520m
10日18時 BNT ~ 10日22時 BNT に一時的に
視程4000m
天気現象雷雨
全天の4割程度の雲 雲底高度 460m
少しの積乱雲 雲底高度 490m
TAF WBSB 091700Z 0918/1100 19003KT 9999 SCT014 FEW015CB BKN150
BECMG 1003/1005 35010KT FEW016 FEW017CB
TEMPO 1010/1014 4000 TSRA SCT015 FEW016CB